Pagrindinis puslapis
METAR-TAF:

METAR-TAF

Oro uostai :

Gvidonija, Italija

platuma: 42-00N, ilguma: 012-44E, Aukštis: 88 m

Dabartinis oras

Ataskaita buvo paskelbta 3 valandos ir 46 minutes, ne 17:55 UTC
Vėjas 3 kt iš Pietų/Pietryčių
Temperatūra 19°C
Drėgmė 68%
Slėgis 1012 hPa
Matomumas 10 km arba daugiau
Mažai debesys ne aukštis 4000 ft

METAR: LIRG 171755Z 15003KT 9999 FEW040 19/13 Q1012 RMK FEW MON NE LIB NC VIS MIN 9999 BLU

Laikas: 23:41 (21:41 UTC)

Prognozė

Ataskaita buvo paskelbta 7 valandos ir 41 minutes, ne 14:00 UTC
Prognozė galioja nuo 17 metu 15 UTC su 17 metu 24 UTC
Vėjas 10 kt iš Vakarų
Matomumas 10 km arba daugiau
Išsisklaidę debesys ne aukštis 3000 ft

TAF: LIRG 171400Z 1715/1724 28010KT 9999 SCT030

Orai ataskaitas ir orų prognozės (METAR, TAF).

turimą stotys yra geltonos ir raudonos taškus žemėlapyje.

Perkelti pele per norėdami pamatyti stoties vardą.

Tada spustelėkite, norėdami matyti oro stebėjimo ir prognozės.

Norėdami pakeisti žemėlapį: spustelėkite ant žalios mygtukų su juodo kryžiaus žemyn,; žalią mygtuką su brūkšneliu, jei norite nutolinti; arba žalių rodyklių gretimoms žemėlapius.


METAR-TAF: